createdAt,value
2023-01-21T00:01:02.223Z,-8.00
2023-01-21T00:02:26.258Z,-8.04
2023-01-21T00:03:45.652Z,-8.14
2023-01-21T00:05:08.258Z,-8.19
2023-01-21T00:06:30.967Z,-8.24
2023-01-21T00:09:20.365Z,-8.22
2023-01-21T00:10:53.683Z,-8.25
2023-01-21T00:12:20.651Z,-8.28
2023-01-21T00:13:33.106Z,-8.34
2023-01-21T00:14:50.993Z,-8.39
2023-01-21T00:16:14.964Z,-8.41
2023-01-21T00:17:36.187Z,-8.44
2023-01-21T00:19:07.494Z,-8.45
2023-01-21T00:20:37.767Z,-8.44
2023-01-21T00:22:10.913Z,-8.39
2023-01-21T00:23:44.613Z,-8.38
2023-01-21T00:24:55.967Z,-8.41
2023-01-21T00:26:38.179Z,-8.44
2023-01-21T00:27:54.949Z,-8.47
2023-01-21T00:29:34.079Z,-8.52
2023-01-21T00:30:55.559Z,-8.52
2023-01-21T00:32:21.838Z,-8.52
2023-01-21T00:33:41.226Z,-8.52
2023-01-21T00:35:02.467Z,-8.53
2023-01-21T00:36:21.555Z,-8.56
2023-01-21T00:37:57.648Z,-8.59
2023-01-21T00:39:19.364Z,-8.62
2023-01-21T00:40:54.981Z,-8.70
2023-01-21T00:43:51.775Z,-8.77
2023-01-21T00:45:27.016Z,-8.79
2023-01-21T00:46:43.095Z,-8.76
2023-01-21T00:49:42.553Z,-8.73
2023-01-21T00:52:13.790Z,-8.70
2023-01-21T00:53:15.827Z,-8.70
2023-01-21T00:54:20.933Z,-8.69
2023-01-21T00:55:22.882Z,-8.68
2023-01-21T00:56:27.645Z,-8.66
2023-01-21T00:57:32.279Z,-8.64
2023-01-21T00:58:37.565Z,-8.65
2023-01-21T00:59:39.973Z,-8.66
2023-01-21T01:00:44.645Z,-8.64
2023-01-21T01:01:46.619Z,-8.62
2023-01-21T01:02:51.338Z,-8.62
2023-01-21T01:03:53.554Z,-8.63
2023-01-21T01:04:58.162Z,-8.61
2023-01-21T01:06:04.188Z,-8.63
2023-01-21T01:07:09.088Z,-8.66
2023-01-21T01:08:11.194Z,-8.70
2023-01-21T01:09:15.800Z,-8.73
2023-01-21T01:10:18.337Z,-8.74
2023-01-21T01:11:25.383Z,-8.77
2023-01-21T01:12:31.318Z,-8.74
2023-01-21T01:13:37.210Z,-8.72
2023-01-21T01:14:39.306Z,-8.71
2023-01-21T01:15:44.030Z,-8.72
2023-01-21T01:16:45.987Z,-8.75
2023-01-21T01:17:50.548Z,-8.75
2023-01-21T01:18:52.807Z,-8.77
2023-01-21T01:19:58.108Z,-8.77
2023-01-21T01:21:00.609Z,-8.75
2023-01-21T01:22:05.289Z,-8.76
2023-01-21T01:24:34.568Z,-8.71
2023-01-21T01:25:38.120Z,-8.73
2023-01-21T01:26:42.909Z,-8.75
2023-01-21T01:27:47.582Z,-8.77
2023-01-21T01:28:52.152Z,-8.81
2023-01-21T01:29:54.150Z,-8.86
2023-01-21T01:30:59.439Z,-8.90
2023-01-21T01:32:01.464Z,-8.95
2023-01-21T01:33:06.123Z,-8.96
2023-01-21T01:34:08.126Z,-8.96
2023-01-21T01:35:12.806Z,-8.97
2023-01-21T01:36:16.470Z,-8.95
2023-01-21T01:37:21.025Z,-8.94
2023-01-21T01:38:23.310Z,-8.92
2023-01-21T01:39:28.085Z,-8.87
2023-01-21T01:40:32.665Z,-8.87
2023-01-21T01:41:37.769Z,-8.84
2023-01-21T01:42:39.949Z,-8.81
2023-01-21T01:44:02.125Z,-8.79
2023-01-21T01:45:05.993Z,-8.79
2023-01-21T01:46:10.561Z,-8.80
2023-01-21T01:47:13.153Z,-8.81
2023-01-21T01:48:21.641Z,-8.80
2023-01-21T01:49:24.000Z,-8.79
2023-01-21T01:50:31.813Z,-8.77
2023-01-21T01:51:42.433Z,-8.82
2023-01-21T01:52:48.300Z,-8.83
2023-01-21T01:53:52.496Z,-8.85
2023-01-21T01:55:00.539Z,-8.89
2023-01-21T01:56:03.337Z,-8.92
2023-01-21T01:57:12.479Z,-8.95
2023-01-21T01:58:17.413Z,-8.97
2023-01-21T01:59:24.711Z,-8.96
2023-01-21T02:00:27.650Z,-8.93
2023-01-21T02:01:32.361Z,-8.97
2023-01-21T02:02:35.118Z,-8.99
2023-01-21T02:03:46.103Z,-8.98
2023-01-21T02:04:56.586Z,-9.03
2023-01-21T02:05:59.276Z,-9.06
2023-01-21T02:07:03.952Z,-9.07
2023-01-21T02:08:06.997Z,-9.07
2023-01-21T02:09:12.279Z,-9.12
2023-01-21T02:10:19.941Z,-9.16
2023-01-21T02:11:24.736Z,-9.23
2023-01-21T02:12:26.852Z,-9.26
2023-01-21T02:13:34.711Z,-9.20
2023-01-21T02:14:43.195Z,-9.23
2023-01-21T02:15:59.731Z,-9.23
2023-01-21T02:17:17.426Z,-9.23
2023-01-21T02:18:31.002Z,-9.21
2023-01-21T02:20:10.638Z,-9.25
2023-01-21T02:21:48.297Z,-9.20
2023-01-21T02:23:01.913Z,-9.20
2023-01-21T02:24:30.563Z,-9.20
2023-01-21T02:26:00.997Z,-9.18
2023-01-21T02:27:30.671Z,-9.14
2023-01-21T02:29:08.498Z,-9.09
2023-01-21T02:30:42.379Z,-9.12
2023-01-21T02:32:08.690Z,-9.14
2023-01-21T02:33:33.174Z,-9.13
2023-01-21T02:34:44.664Z,-9.17
2023-01-21T02:35:50.748Z,-9.17
2023-01-21T02:37:07.587Z,-9.17
2023-01-21T02:38:15.403Z,-9.15
2023-01-21T02:39:34.687Z,-9.17
2023-01-21T02:40:42.449Z,-9.15
2023-01-21T02:42:03.241Z,-9.16
2023-01-21T02:43:10.773Z,-9.12
2023-01-21T02:44:23.280Z,-9.12
2023-01-21T02:45:36.299Z,-9.09
2023-01-21T02:46:44.071Z,-9.12
2023-01-21T02:47:56.081Z,-9.10
2023-01-21T02:49:05.155Z,-9.11
2023-01-21T02:50:15.468Z,-9.12
2023-01-21T02:51:19.310Z,-9.13
2023-01-21T02:52:25.814Z,-9.17
2023-01-21T02:53:30.207Z,-9.15
2023-01-21T02:54:53.803Z,-9.16
2023-01-21T02:56:00.378Z,-9.12
2023-01-21T02:57:02.782Z,-9.15
2023-01-21T02:58:10.447Z,-9.15
2023-01-21T02:59:13.261Z,-9.13
2023-01-21T03:00:23.615Z,-9.15
2023-01-21T03:01:37.183Z,-9.14
2023-01-21T03:03:19.888Z,-9.18
2023-01-21T03:04:46.476Z,-9.21
2023-01-21T03:06:10.336Z,-9.18
2023-01-21T03:07:23.495Z,-9.20
2023-01-21T03:08:32.689Z,-9.23
2023-01-21T03:09:38.986Z,-9.26
2023-01-21T03:10:43.807Z,-9.26
2023-01-21T03:12:02.741Z,-9.26
2023-01-21T03:13:12.256Z,-9.25
2023-01-21T03:14:36.751Z,-9.27
2023-01-21T03:15:59.414Z,-9.25
2023-01-21T03:17:15.012Z,-9.29
2023-01-21T03:18:24.335Z,-9.25
2023-01-21T03:20:39.494Z,-9.25
2023-01-21T03:21:42.400Z,-9.27
2023-01-21T03:22:48.350Z,-9.27
2023-01-21T03:23:53.742Z,-9.23
2023-01-21T03:25:00.698Z,-9.23
2023-01-21T03:26:07.257Z,-9.20
2023-01-21T03:27:12.406Z,-9.19
2023-01-21T03:28:20.604Z,-9.23
2023-01-21T03:29:27.668Z,-9.26
2023-01-21T03:30:34.657Z,-9.27
2023-01-21T03:31:40.115Z,-9.22
2023-01-21T03:32:48.357Z,-9.18
2023-01-21T03:33:53.609Z,-9.13
2023-01-21T03:34:59.673Z,-9.11
2023-01-21T03:37:19.661Z,-9.12
2023-01-21T03:38:29.709Z,-9.14
2023-01-21T03:39:44.719Z,-9.10
2023-01-21T03:40:51.116Z,-9.09
2023-01-21T03:41:56.929Z,-9.12
2023-01-21T03:43:00.035Z,-9.15
2023-01-21T03:44:06.719Z,-9.19
2023-01-21T03:45:12.350Z,-9.23
2023-01-21T03:46:23.074Z,-9.24
2023-01-21T03:47:31.824Z,-9.27
2023-01-21T03:48:44.016Z,-9.28
2023-01-21T03:49:52.711Z,-9.33
2023-01-21T03:51:03.262Z,-9.34
2023-01-21T03:52:09.543Z,-9.33
2023-01-21T03:53:18.150Z,-9.34
2023-01-21T03:54:22.443Z,-9.33
2023-01-21T03:55:28.535Z,-9.33
2023-01-21T03:56:32.000Z,-9.33
2023-01-21T03:57:37.877Z,-9.33
2023-01-21T03:58:40.507Z,-9.35
2023-01-21T03:59:46.652Z,-9.35
2023-01-21T04:00:50.660Z,-9.37
2023-01-21T04:01:56.744Z,-9.44
2023-01-21T04:02:59.189Z,-9.38
2023-01-21T04:04:05.347Z,-9.46
2023-01-21T04:05:11.018Z,-9.47
2023-01-21T04:06:15.973Z,-9.48
2023-01-21T04:07:21.396Z,-9.51
2023-01-21T04:08:26.852Z,-9.55
2023-01-21T04:09:32.549Z,-9.57
2023-01-21T04:10:34.717Z,-9.59
2023-01-21T04:11:39.537Z,-9.54
2023-01-21T04:12:41.707Z,-9.46
2023-01-21T04:13:48.162Z,-9.35
2023-01-21T04:14:51.377Z,-9.28
2023-01-21T04:15:57.620Z,-9.17
2023-01-21T04:16:59.859Z,-9.05
2023-01-21T04:18:06.028Z,-9.05
2023-01-21T04:19:09.557Z,-8.91
2023-01-21T04:20:18.103Z,-8.80
2023-01-21T04:21:22.459Z,-8.64
2023-01-21T04:22:28.508Z,-8.57
2023-01-21T04:23:35.087Z,-8.54
2023-01-21T04:24:41.001Z,-8.40
2023-01-21T04:25:44.273Z,-8.43
2023-01-21T04:26:49.557Z,-8.36
2023-01-21T04:27:52.340Z,-8.33
2023-01-21T04:28:57.582Z,-8.34
2023-01-21T04:30:00.645Z,-8.35
2023-01-21T04:31:05.988Z,-8.29
2023-01-21T04:32:09.216Z,-8.33
2023-01-21T04:33:15.034Z,-8.37
2023-01-21T04:34:18.173Z,-8.42
2023-01-21T04:35:23.109Z,-8.35
2023-01-21T04:36:28.668Z,-8.28
2023-01-21T04:37:33.522Z,-8.23
2023-01-21T04:38:38.313Z,-8.24
2023-01-21T04:39:44.217Z,-8.20
2023-01-21T04:40:46.425Z,-8.18
2023-01-21T04:41:51.844Z,-8.23
2023-01-21T04:42:54.968Z,-8.26
2023-01-21T04:44:01.397Z,-8.30
2023-01-21T04:45:04.599Z,-8.30
2023-01-21T04:46:10.438Z,-8.37
2023-01-21T04:47:13.298Z,-8.37
2023-01-21T04:48:18.819Z,-8.38
2023-01-21T04:49:22.203Z,-8.21
2023-01-21T04:50:28.764Z,-8.19
2023-01-21T04:51:31.036Z,-8.13
2023-01-21T04:52:37.020Z,-8.01
2023-01-21T04:53:42.191Z,-7.97
2023-01-21T04:54:47.469Z,-7.91
2023-01-21T04:55:52.933Z,-7.84
2023-01-21T04:56:58.066Z,-7.68
2023-01-21T04:58:01.128Z,-7.59
2023-01-21T04:59:06.469Z,-7.44
2023-01-21T05:00:13.492Z,-7.33
2023-01-21T05:01:16.439Z,-7.24
2023-01-21T05:02:21.382Z,-7.15
2023-01-21T05:03:23.933Z,-7.07
2023-01-21T05:04:29.027Z,-7.04
2023-01-21T05:05:31.717Z,-7.02
2023-01-21T05:06:36.609Z,-6.99
2023-01-21T05:07:39.891Z,-6.96
2023-01-21T05:08:47.843Z,-6.96
2023-01-21T05:09:51.192Z,-6.94
2023-01-21T05:10:57.312Z,-6.92
2023-01-21T05:12:00.787Z,-6.92
2023-01-21T05:13:06.687Z,-6.92
2023-01-21T05:14:09.214Z,-6.91
2023-01-21T05:15:15.964Z,-6.89
2023-01-21T05:16:19.051Z,-6.86
2023-01-21T05:17:24.876Z,-6.85
2023-01-21T05:18:28.042Z,-6.83
2023-01-21T05:19:33.317Z,-6.85
2023-01-21T05:20:36.376Z,-6.82
2023-01-21T05:21:42.404Z,-6.85
2023-01-21T05:22:46.950Z,-6.84
2023-01-21T05:23:55.753Z,-6.85
2023-01-21T05:25:00.806Z,-6.82
2023-01-21T05:26:13.099Z,-6.88
2023-01-21T05:27:16.309Z,-6.89
2023-01-21T05:28:22.626Z,-6.89
2023-01-21T05:29:25.944Z,-6.90
2023-01-21T05:30:32.076Z,-6.84
2023-01-21T05:31:34.817Z,-6.82
2023-01-21T05:32:41.413Z,-6.93
2023-01-21T05:33:46.259Z,-6.95
2023-01-21T05:34:51.916Z,-6.95
2023-01-21T05:35:54.817Z,-7.06
2023-01-21T05:36:59.995Z,-7.02
2023-01-21T05:38:02.791Z,-7.03
2023-01-21T05:39:11.969Z,-7.07
2023-01-21T05:40:16.357Z,-7.13
2023-01-21T05:41:22.667Z,-7.15
2023-01-21T05:42:25.983Z,-7.17
2023-01-21T05:43:31.803Z,-7.13
2023-01-21T05:44:35.001Z,-7.12
2023-01-21T05:45:39.994Z,-7.19
2023-01-21T05:46:42.815Z,-7.17
2023-01-21T05:47:47.644Z,-7.13
2023-01-21T05:48:50.386Z,-7.18
2023-01-21T05:49:55.532Z,-7.20
2023-01-21T05:50:58.448Z,-7.25
2023-01-21T05:52:04.454Z,-7.27
2023-01-21T05:53:06.918Z,-7.30
2023-01-21T05:54:14.842Z,-7.27
2023-01-21T05:55:18.226Z,-7.31
2023-01-21T05:56:22.987Z,-7.27
2023-01-21T05:57:25.307Z,-7.25
2023-01-21T05:58:31.276Z,-7.23
2023-01-21T05:59:33.957Z,-7.21
2023-01-21T06:00:42.115Z,-7.19
2023-01-21T06:01:45.023Z,-7.21
2023-01-21T06:02:50.800Z,-7.22
2023-01-21T06:03:52.925Z,-7.18
2023-01-21T06:04:58.654Z,-7.18
2023-01-21T06:06:01.267Z,-7.17
2023-01-21T06:07:05.914Z,-7.13
2023-01-21T06:08:08.600Z,-7.13
2023-01-21T06:09:16.913Z,-7.10
2023-01-21T06:10:20.658Z,-7.09
2023-01-21T06:11:25.854Z,-7.07
2023-01-21T06:12:28.115Z,-7.05
2023-01-21T06:13:32.956Z,-7.06
2023-01-21T06:14:35.592Z,-7.04
2023-01-21T06:15:40.620Z,-7.04
2023-01-21T06:16:42.747Z,-7.04
2023-01-21T06:17:47.662Z,-7.04
2023-01-21T06:18:49.850Z,-6.96
2023-01-21T06:19:54.525Z,-7.01
2023-01-21T06:20:59.574Z,-7.01
2023-01-21T06:22:04.137Z,-6.97
2023-01-21T06:23:09.031Z,-6.99
2023-01-21T06:24:13.936Z,-6.96
2023-01-21T06:25:19.739Z,-6.98
2023-01-21T06:26:27.139Z,-6.90
2023-01-21T06:27:52.830Z,-6.93
2023-01-21T06:29:02.306Z,-6.94
2023-01-21T06:30:06.486Z,-6.95
2023-01-21T06:31:11.858Z,-6.95
2023-01-21T06:32:13.877Z,-6.93
2023-01-21T06:35:12.179Z,-6.91
2023-01-21T06:36:14.435Z,-6.88
2023-01-21T06:37:19.663Z,-6.85
2023-01-21T06:38:23.703Z,-6.88
2023-01-21T06:39:32.215Z,-6.83
2023-01-21T06:40:34.197Z,-6.77
2023-01-21T06:41:38.929Z,-6.73
2023-01-21T06:42:41.043Z,-6.80
2023-01-21T06:43:45.662Z,-6.80
2023-01-21T06:44:47.983Z,-6.79
2023-01-21T06:45:52.531Z,-6.71
2023-01-21T06:47:01.224Z,-6.70
2023-01-21T06:48:06.369Z,-6.64
2023-01-21T06:49:08.443Z,-6.63
2023-01-21T06:50:15.332Z,-6.60
2023-01-21T06:51:17.427Z,-6.61
2023-01-21T06:52:22.104Z,-6.60
2023-01-21T06:53:24.081Z,-6.59
2023-01-21T06:54:31.261Z,-6.59
2023-01-21T06:55:35.844Z,-6.60
2023-01-21T06:56:38.336Z,-6.57
2023-01-21T06:57:45.565Z,-6.58
2023-01-21T06:58:48.176Z,-6.60
2023-01-21T06:59:52.734Z,-6.54
2023-01-21T07:00:56.445Z,-6.49
2023-01-21T07:02:01.202Z,-6.48
2023-01-21T07:03:05.819Z,-6.42
2023-01-21T07:04:07.955Z,-6.38
2023-01-21T07:05:15.098Z,-6.35
2023-01-21T07:06:17.507Z,-6.38
2023-01-21T07:07:22.020Z,-6.39
2023-01-21T07:08:23.978Z,-6.36
2023-01-21T07:09:34.587Z,-6.35
2023-01-21T07:10:36.583Z,-6.29
2023-01-21T07:11:41.184Z,-6.27
2023-01-21T07:12:43.272Z,-6.28
2023-01-21T07:13:47.814Z,-6.24
2023-01-21T07:14:52.391Z,-6.22
2023-01-21T07:15:59.419Z,-6.20
2023-01-21T07:17:03.983Z,-6.18
2023-01-21T07:18:06.053Z,-6.18
2023-01-21T07:19:10.937Z,-6.16
2023-01-21T07:20:13.017Z,-6.11
2023-01-21T07:21:17.738Z,-6.09
2023-01-21T07:22:19.733Z,-6.07
2023-01-21T07:23:24.814Z,-6.01
2023-01-21T07:24:26.815Z,-5.94
2023-01-21T07:25:36.224Z,-5.94
2023-01-21T07:26:38.309Z,-5.93
2023-01-21T07:27:44.076Z,-5.91
2023-01-21T07:28:46.174Z,-5.89
2023-01-21T07:29:50.833Z,-5.85
2023-01-21T07:30:53.480Z,-5.83
2023-01-21T07:31:58.059Z,-5.89
2023-01-21T07:33:05.823Z,-5.80
2023-01-21T07:34:10.534Z,-5.82
2023-01-21T07:35:12.724Z,-5.81
2023-01-21T07:36:17.892Z,-5.76
2023-01-21T07:37:20.365Z,-5.72
2023-01-21T07:38:25.574Z,-5.67
2023-01-21T07:39:27.674Z,-5.64
2023-01-21T07:40:36.246Z,-5.59
2023-01-21T07:41:38.808Z,-5.54
2023-01-21T07:42:43.784Z,-5.51
2023-01-21T07:43:47.848Z,-5.46
2023-01-21T07:44:52.535Z,-5.41
2023-01-21T07:45:55.003Z,-5.44
2023-01-21T07:46:59.527Z,-5.42
2023-01-21T07:48:04.717Z,-5.45
2023-01-21T07:49:06.901Z,-5.40
2023-01-21T07:50:32.531Z,-5.36
2023-01-21T07:51:37.105Z,-5.31
2023-01-21T07:52:41.716Z,-5.30
2023-01-21T07:53:43.820Z,-5.24
2023-01-21T07:54:49.507Z,-5.19
2023-01-21T07:55:51.727Z,-5.14
2023-01-21T07:56:56.287Z,-5.09
2023-01-21T07:57:58.942Z,-5.06
2023-01-21T07:59:03.480Z,-5.04
2023-01-21T08:00:07.203Z,-5.10
2023-01-21T08:01:12.607Z,-5.13
2023-01-21T08:02:14.690Z,-5.13
2023-01-21T08:03:21.963Z,-5.05
2023-01-21T08:04:26.850Z,-5.00
2023-01-21T08:05:32.596Z,-4.94
2023-01-21T08:06:37.861Z,-4.93
2023-01-21T08:07:39.935Z,-4.90
2023-01-21T08:08:44.480Z,-4.88
2023-01-21T08:09:46.417Z,-4.86
2023-01-21T08:10:54.272Z,-4.86
2023-01-21T08:11:56.516Z,-4.90
2023-01-21T08:13:01.973Z,-4.87
2023-01-21T08:14:04.079Z,-4.80
2023-01-21T08:15:12.920Z,-4.72
2023-01-21T08:16:14.952Z,-4.60
2023-01-21T08:17:19.580Z,-4.63
2023-01-21T08:18:22.831Z,-4.59
2023-01-21T08:19:27.409Z,-4.72
2023-01-21T08:20:35.036Z,-4.57
2023-01-21T08:21:37.047Z,-4.55
2023-01-21T08:22:41.765Z,-4.54
2023-01-21T08:23:43.799Z,-4.43
2023-01-21T08:24:48.435Z,-4.39
2023-01-21T08:25:53.243Z,-4.31
2023-01-21T08:26:57.721Z,-4.30
2023-01-21T08:28:02.491Z,-4.25
2023-01-21T08:29:04.645Z,-4.15
2023-01-21T08:30:10.794Z,-4.10
2023-01-21T08:31:13.538Z,-4.08
2023-01-21T08:32:18.327Z,-4.10
2023-01-21T08:33:20.366Z,-4.03
2023-01-21T08:34:25.528Z,-4.04
2023-01-21T08:35:27.560Z,-3.91
2023-01-21T08:36:34.820Z,-3.90
2023-01-21T08:37:36.799Z,-3.86
2023-01-21T08:38:41.503Z,-3.83
2023-01-21T08:39:46.080Z,-3.68
2023-01-21T08:40:48.055Z,-3.72
2023-01-21T08:41:52.616Z,-3.61
2023-01-21T08:42:58.801Z,-3.49
2023-01-21T08:44:03.353Z,-3.62
2023-01-21T08:45:06.898Z,-3.53
2023-01-21T08:46:11.659Z,-3.51
2023-01-21T08:47:13.737Z,-3.47
2023-01-21T08:48:19.025Z,-3.46
2023-01-21T08:49:24.098Z,-3.45
2023-01-21T08:50:26.885Z,-3.44
2023-01-21T08:51:34.030Z,-3.38
2023-01-21T08:52:36.080Z,-3.33
2023-01-21T08:53:40.647Z,-3.33
2023-01-21T08:54:45.282Z,-3.33
2023-01-21T08:55:47.284Z,-3.29
2023-01-21T08:56:51.839Z,-3.41
2023-01-21T08:57:54.428Z,-3.34
2023-01-21T08:58:59.416Z,-3.39
2023-01-21T09:00:01.358Z,-3.28
2023-01-21T09:01:10.538Z,-3.40
2023-01-21T09:02:13.000Z,-3.31
2023-01-21T09:03:19.540Z,-3.25
2023-01-21T09:04:21.510Z,-3.32
2023-01-21T09:05:26.075Z,-3.35
2023-01-21T09:06:31.834Z,-3.34
2023-01-21T09:07:36.437Z,-3.34
2023-01-21T09:08:38.376Z,-3.33
2023-01-21T09:09:42.935Z,-3.47
2023-01-21T09:10:59.936Z,-3.38
2023-01-21T09:12:04.495Z,-3.41
2023-01-21T09:13:07.270Z,-3.34
2023-01-21T09:14:11.871Z,-3.24
2023-01-21T09:15:13.886Z,-3.26
2023-01-21T09:16:21.085Z,-3.20
2023-01-21T09:17:23.174Z,-3.21
2023-01-21T09:18:27.985Z,-3.25
2023-01-21T09:19:32.506Z,-3.19
2023-01-21T09:20:34.765Z,-3.19
2023-01-21T09:21:41.958Z,-3.11
2023-01-21T09:22:43.947Z,-3.02
2023-01-21T09:23:48.481Z,-3.08
2023-01-21T09:24:50.434Z,-3.04
2023-01-21T09:25:55.365Z,-3.00
2023-01-21T09:26:59.900Z,-3.06
2023-01-21T09:28:01.860Z,-3.10
2023-01-21T09:29:06.511Z,-3.21
2023-01-21T09:30:10.242Z,-3.13
2023-01-21T09:31:17.522Z,-3.13
2023-01-21T09:32:19.521Z,-3.01
2023-01-21T09:33:24.138Z,-3.03
2023-01-21T09:34:28.875Z,-3.01
2023-01-21T09:35:30.885Z,-3.01
2023-01-21T09:36:37.583Z,-3.04
2023-01-21T09:37:42.144Z,-2.93
2023-01-21T09:38:47.329Z,-2.98
2023-01-21T09:39:49.317Z,-3.13
2023-01-21T09:40:54.923Z,-3.21
2023-01-21T09:41:59.704Z,-3.09
2023-01-21T09:43:11.697Z,-3.03
2023-01-21T09:44:22.155Z,-3.02
2023-01-21T09:45:24.908Z,-2.97
2023-01-21T09:46:36.257Z,-2.99
2023-01-21T09:47:44.321Z,-3.24
2023-01-21T09:48:49.507Z,-3.10
2023-01-21T09:49:57.032Z,-3.15
2023-01-21T09:51:02.649Z,-3.06
2023-01-21T09:52:19.286Z,-3.10
2023-01-21T09:53:35.173Z,-3.07
2023-01-21T09:54:41.518Z,-2.94
2023-01-21T09:55:47.665Z,-2.92
2023-01-21T09:57:24.913Z,-2.77
2023-01-21T09:58:36.221Z,-2.78
2023-01-21T09:59:51.543Z,-2.70
2023-01-21T10:01:01.039Z,-2.49
2023-01-21T10:02:09.599Z,-2.35
2023-01-21T10:03:26.728Z,-2.26
2023-01-21T10:04:43.192Z,-2.19
2023-01-21T10:06:04.687Z,-2.26
2023-01-21T10:07:15.613Z,-2.25
2023-01-21T10:08:25.637Z,-2.31
2023-01-21T10:10:00.005Z,-2.39
2023-01-21T10:11:18.879Z,-2.60
2023-01-21T10:12:31.670Z,-2.60
2023-01-21T10:13:52.931Z,-2.58
2023-01-21T10:15:18.820Z,-2.57
2023-01-21T10:16:30.184Z,-2.61
2023-01-21T10:17:47.628Z,-2.65
2023-01-21T10:18:54.842Z,-2.80
2023-01-21T10:20:06.355Z,-2.66
2023-01-21T10:21:17.087Z,-2.56
2023-01-21T10:22:23.762Z,-2.60
2023-01-21T10:23:34.237Z,-2.64
2023-01-21T10:24:41.029Z,-2.63
2023-01-21T10:25:50.724Z,-2.62
2023-01-21T10:26:54.039Z,-2.69
2023-01-21T10:28:01.134Z,-2.75
2023-01-21T10:29:03.871Z,-2.70
2023-01-21T10:30:25.573Z,-2.67
2023-01-21T10:31:31.851Z,-2.70
2023-01-21T10:32:37.845Z,-2.78
2023-01-21T10:33:42.410Z,-2.76
2023-01-21T10:34:53.463Z,-2.79
2023-01-21T10:36:10.239Z,-2.81
2023-01-21T10:37:21.369Z,-2.85
2023-01-21T10:38:32.021Z,-2.68
2023-01-21T10:39:45.960Z,-2.64
2023-01-21T10:40:58.967Z,-2.61
2023-01-21T10:42:19.647Z,-2.60
2023-01-21T10:43:35.969Z,-2.77
2023-01-21T10:44:46.566Z,-2.75
2023-01-21T10:45:59.834Z,-2.79
2023-01-21T10:47:11.907Z,-2.81
2023-01-21T10:48:22.538Z,-2.87
2023-01-21T10:51:16.183Z,-3.05
2023-01-21T10:52:24.588Z,-3.08
2023-01-21T10:53:37.011Z,-2.99
2023-01-21T10:54:51.427Z,-3.01
2023-01-21T10:56:09.482Z,-2.96
2023-01-21T10:57:24.571Z,-2.80
2023-01-21T10:58:35.583Z,-2.93
2023-01-21T10:59:40.379Z,-2.82
2023-01-21T11:00:48.763Z,-2.89
2023-01-21T11:01:57.343Z,-2.81
2023-01-21T11:03:03.581Z,-2.79
2023-01-21T11:04:13.939Z,-2.77
2023-01-21T11:05:17.535Z,-2.79
2023-01-21T11:06:24.444Z,-2.82
2023-01-21T11:07:33.027Z,-2.74
2023-01-21T11:08:35.276Z,-2.71
2023-01-21T11:09:43.066Z,-2.75
2023-01-21T11:10:47.105Z,-2.70
2023-01-21T11:11:54.411Z,-2.62
2023-01-21T11:12:56.926Z,-2.59
2023-01-21T11:14:01.709Z,-2.48
2023-01-21T11:15:17.911Z,-2.48
2023-01-21T11:16:33.879Z,-2.49
2023-01-21T11:17:42.339Z,-2.42
2023-01-21T11:18:44.471Z,-2.42
2023-01-21T11:20:01.121Z,-2.42
2023-01-21T11:21:14.805Z,-2.55
2023-01-21T11:22:22.219Z,-2.70
2023-01-21T11:23:30.425Z,-2.54
2023-01-21T11:24:45.940Z,-2.45
2023-01-21T11:25:51.824Z,-2.44
2023-01-21T11:27:01.604Z,-2.44
2023-01-21T11:28:06.443Z,-2.42
2023-01-21T11:29:17.546Z,-2.41
2023-01-21T11:30:49.582Z,-2.30
2023-01-21T11:32:04.646Z,-2.21
2023-01-21T11:33:20.614Z,-2.09
2023-01-21T11:34:26.446Z,-2.12
2023-01-21T11:35:28.760Z,-1.81
2023-01-21T11:36:33.422Z,-1.59
2023-01-21T11:37:40.268Z,-1.43
2023-01-21T11:38:43.219Z,-1.37
2023-01-21T11:41:27.190Z,-1.19
2023-01-21T11:42:35.533Z,-1.17
2023-01-21T11:43:43.676Z,-1.02
2023-01-21T11:44:55.457Z,-1.12
2023-01-21T11:45:57.701Z,-1.05
2023-01-21T11:47:02.716Z,-1.10
2023-01-21T11:48:19.794Z,-1.09
2023-01-21T11:49:32.106Z,-1.16
2023-01-21T11:50:38.418Z,-1.15
2023-01-21T11:51:42.109Z,-1.30
2023-01-21T11:52:47.268Z,-1.24
2023-01-21T11:53:49.565Z,-1.23
2023-01-21T11:54:54.669Z,-1.23
2023-01-21T11:55:57.445Z,-1.38
2023-01-21T11:57:04.728Z,-1.24
2023-01-21T11:58:21.028Z,-1.19
2023-01-21T11:59:27.478Z,-1.06
2023-01-21T12:00:35.734Z,-0.85
2023-01-21T12:01:37.967Z,-0.74
2023-01-21T12:02:46.757Z,-0.70
2023-01-21T12:03:55.761Z,-0.66
2023-01-21T12:05:02.058Z,-0.59
2023-01-21T12:06:10.012Z,-0.45
2023-01-21T12:07:19.771Z,-0.39
2023-01-21T12:08:27.400Z,-0.45
2023-01-21T12:09:30.020Z,-0.40
2023-01-21T12:10:38.988Z,-0.77
2023-01-21T12:11:41.360Z,-0.71
2023-01-21T12:12:56.149Z,-0.95
2023-01-21T12:14:12.322Z,-0.99
2023-01-21T12:15:32.448Z,-1.54
2023-01-21T12:16:39.448Z,-1.50
2023-01-21T12:17:53.953Z,-1.62
2023-01-21T12:19:23.828Z,-1.48
2023-01-21T12:20:36.650Z,-1.48
2023-01-21T12:21:55.804Z,-1.44
2023-01-21T12:23:36.693Z,-1.50
2023-01-21T12:24:58.523Z,-1.48
2023-01-21T12:26:20.960Z,-1.49
2023-01-21T12:27:35.459Z,-1.51
2023-01-21T12:28:52.837Z,-1.56
2023-01-21T12:30:09.867Z,-1.54
2023-01-21T12:31:29.565Z,-1.51
2023-01-21T12:32:39.892Z,-1.60
2023-01-21T12:33:51.236Z,-1.53
2023-01-21T12:35:02.310Z,-1.76
2023-01-21T12:36:13.197Z,-1.74
2023-01-21T12:37:25.406Z,-1.66
2023-01-21T12:38:33.842Z,-1.83
2023-01-21T12:39:40.632Z,-1.82
2023-01-21T12:40:50.365Z,-1.95
2023-01-21T12:42:09.298Z,-1.91
2023-01-21T12:43:22.077Z,-1.97
2023-01-21T12:44:31.757Z,-1.85
2023-01-21T12:45:44.369Z,-1.92
2023-01-21T12:46:51.380Z,-1.90
2023-01-21T12:48:03.464Z,-1.93
2023-01-21T12:49:13.181Z,-1.86
2023-01-21T12:50:26.960Z,-1.82
2023-01-21T12:51:35.264Z,-1.88
2023-01-21T12:52:47.998Z,-1.79
2023-01-21T12:53:59.695Z,-1.89
2023-01-21T12:55:07.778Z,-1.89
2023-01-21T12:56:23.798Z,-2.11
2023-01-21T12:57:31.822Z,-1.98
2023-01-21T12:58:40.622Z,-1.97
2023-01-21T12:59:47.945Z,-1.96
2023-01-21T13:00:57.639Z,-2.03
2023-01-21T13:02:06.142Z,-2.06
2023-01-21T13:03:24.191Z,-2.11
2023-01-21T13:04:49.829Z,-2.08
2023-01-21T13:06:01.593Z,-2.30
2023-01-21T13:07:11.832Z,-2.21
2023-01-21T13:08:38.350Z,-2.21
2023-01-21T13:09:48.340Z,-2.14
2023-01-21T13:10:58.866Z,-2.28
2023-01-21T13:12:07.634Z,-2.17
2023-01-21T13:13:17.487Z,-2.03
2023-01-21T13:14:30.215Z,-2.01
2023-01-21T13:15:37.861Z,-2.03
2023-01-21T13:16:50.362Z,-2.03
2023-01-21T13:18:01.984Z,-2.11
2023-01-21T13:19:06.498Z,-2.23
2023-01-21T13:20:15.178Z,-2.15
2023-01-21T13:21:28.530Z,-2.15
2023-01-21T13:22:42.955Z,-2.07
2023-01-21T13:23:52.186Z,-1.99
2023-01-21T13:25:05.029Z,-2.06
2023-01-21T13:26:16.170Z,-2.07
2023-01-21T13:27:25.032Z,-2.10
2023-01-21T13:28:38.033Z,-2.06
2023-01-21T13:29:50.282Z,-2.06
2023-01-21T13:31:02.394Z,-2.06
2023-01-21T13:32:42.306Z,-2.07
2023-01-21T13:33:55.811Z,-2.04
2023-01-21T13:35:18.141Z,-2.20
2023-01-21T13:36:38.512Z,-2.06
2023-01-21T13:37:50.221Z,-2.32
2023-01-21T13:39:04.188Z,-2.17
2023-01-21T13:40:35.919Z,-2.07
2023-01-21T13:41:59.862Z,-2.07
2023-01-21T13:43:19.401Z,-2.14
2023-01-21T13:44:48.372Z,-2.12
2023-01-21T13:46:02.337Z,-2.25
2023-01-21T13:47:18.845Z,-2.20
2023-01-21T13:48:49.601Z,-2.21
2023-01-21T13:50:15.682Z,-2.23
2023-01-21T13:51:29.329Z,-2.14
2023-01-21T13:52:46.411Z,-2.06
2023-01-21T13:54:14.211Z,-2.16
2023-01-21T13:55:36.362Z,-2.15
2023-01-21T13:56:57.498Z,-2.20
2023-01-21T13:58:06.187Z,-2.15
2023-01-21T13:59:15.189Z,-2.11
2023-01-21T14:00:23.098Z,-2.13
2023-01-21T14:01:30.117Z,-2.05
2023-01-21T14:02:42.255Z,-2.11
2023-01-21T14:03:55.220Z,-1.98
2023-01-21T14:05:04.495Z,-2.07
2023-01-21T14:06:14.054Z,-2.16
2023-01-21T14:07:22.548Z,-2.21
2023-01-21T14:08:35.688Z,-2.21
2023-01-21T14:09:42.974Z,-2.22
2023-01-21T14:10:53.131Z,-2.32
2023-01-21T14:12:02.052Z,-2.51
2023-01-21T14:13:40.461Z,-2.58
2023-01-21T14:15:12.785Z,-2.48
2023-01-21T14:16:45.761Z,-2.56
2023-01-21T14:18:35.429Z,-2.62
2023-01-21T14:19:56.044Z,-2.68
2023-01-21T14:21:17.425Z,-2.57
2023-01-21T14:22:45.081Z,-2.49
2023-01-21T14:24:18.418Z,-2.44
2023-01-21T14:25:35.571Z,-2.57
2023-01-21T14:26:49.583Z,-2.53
2023-01-21T14:28:05.872Z,-2.60
2023-01-21T14:29:17.613Z,-2.44
2023-01-21T14:30:28.359Z,-2.46
2023-01-21T14:31:37.109Z,-2.42
2023-01-21T14:32:46.658Z,-2.59
2023-01-21T14:33:58.001Z,-2.56
2023-01-21T14:35:17.817Z,-2.59
2023-01-21T14:36:28.793Z,-2.86
2023-01-21T14:37:34.372Z,-2.96
2023-01-21T14:38:49.808Z,-2.87
2023-01-21T14:40:01.771Z,-2.92
2023-01-21T14:41:09.586Z,-2.96
2023-01-21T14:42:13.789Z,-2.98
2023-01-21T14:43:44.471Z,-2.98
2023-01-21T14:45:04.771Z,-3.01
2023-01-21T14:46:29.311Z,-3.10
2023-01-21T14:47:54.291Z,-3.14
2023-01-21T14:49:06.447Z,-3.04
2023-01-21T14:50:34.443Z,-3.06
2023-01-21T14:51:40.716Z,-2.99
2023-01-21T14:52:46.003Z,-3.01
2023-01-21T14:53:53.173Z,-3.04
2023-01-21T14:54:57.973Z,-2.94
2023-01-21T14:56:10.711Z,-2.95
2023-01-21T14:57:29.163Z,-2.98
2023-01-21T14:58:31.923Z,-3.02
2023-01-21T14:59:39.309Z,-3.07
2023-01-21T15:00:45.714Z,-3.04
2023-01-21T15:01:51.224Z,-3.07
2023-01-21T15:03:05.119Z,-3.07
2023-01-21T15:04:22.935Z,-3.07
2023-01-21T15:05:35.969Z,-3.04